createdAt,value
2023-01-20T00:00:00.364Z,-2.0
2023-01-20T00:01:00.668Z,-1.9
2023-01-20T00:02:00.450Z,-1.9
2023-01-20T00:03:00.368Z,-1.8
2023-01-20T00:04:00.526Z,-1.8
2023-01-20T00:05:00.407Z,-1.8
2023-01-20T00:06:00.490Z,-1.8
2023-01-20T00:07:00.382Z,-1.8
2023-01-20T00:08:00.371Z,-1.8
2023-01-20T00:09:02.799Z,-1.8
2023-01-20T00:10:00.487Z,-1.8
2023-01-20T00:11:04.469Z,-1.8
2023-01-20T00:12:00.398Z,-1.8
2023-01-20T00:13:00.379Z,-1.9
2023-01-20T00:14:01.868Z,-1.9
2023-01-20T00:15:00.394Z,-1.9
2023-01-20T00:16:02.204Z,-1.8
2023-01-20T00:17:00.369Z,-1.8
2023-01-20T00:18:00.381Z,-1.8
2023-01-20T00:19:00.643Z,-1.8
2023-01-20T00:20:00.488Z,-1.8
2023-01-20T00:21:01.092Z,-1.8
2023-01-20T00:22:00.418Z,-1.8
2023-01-20T00:23:00.410Z,-1.9
2023-01-20T00:24:00.417Z,-1.9
2023-01-20T00:25:00.392Z,-1.9
2023-01-20T00:26:10.000Z,-1.9
2023-01-20T00:27:00.377Z,-2.0
2023-01-20T00:28:00.418Z,-2.0
2023-01-20T00:29:00.371Z,-2.0
2023-01-20T00:30:00.377Z,-2.0
2023-01-20T00:31:11.407Z,-2.0
2023-01-20T00:32:00.380Z,-2.0
2023-01-20T00:33:00.382Z,-2.1
2023-01-20T00:34:01.577Z,-2.1
2023-01-20T00:35:00.389Z,-2.1
2023-01-20T00:36:00.417Z,-2.1
2023-01-20T00:37:00.373Z,-2.1
2023-01-20T00:38:00.399Z,-2.2
2023-01-20T00:39:00.727Z,-2.2
2023-01-20T00:40:03.610Z,-2.2
2023-01-20T00:41:00.427Z,-2.2
2023-01-20T00:42:00.357Z,-2.2
2023-01-20T00:43:00.358Z,-2.2
2023-01-20T00:44:00.406Z,-2.2
2023-01-20T00:45:00.397Z,-2.2
2023-01-20T00:46:01.115Z,-2.2
2023-01-20T00:47:00.375Z,-2.2
2023-01-20T00:48:00.358Z,-2.2
2023-01-20T00:49:00.558Z,-2.1
2023-01-20T00:50:00.374Z,-2.0
2023-01-20T00:51:01.123Z,-1.9
2023-01-20T00:52:00.395Z,-1.9
2023-01-20T00:53:00.371Z,-1.9
2023-01-20T00:54:00.385Z,-1.8
2023-01-20T00:55:00.397Z,-1.9
2023-01-20T00:56:00.422Z,-1.9
2023-01-20T00:57:00.348Z,-1.9
2023-01-20T00:58:00.593Z,-1.9
2023-01-20T00:59:00.399Z,-2.0
2023-01-20T01:00:00.392Z,-2.0
2023-01-20T01:01:00.975Z,-2.0
2023-01-20T01:02:00.523Z,-2.1
2023-01-20T01:03:00.445Z,-2.1
2023-01-20T01:04:00.408Z,-2.1
2023-01-20T01:05:00.366Z,-2.2
2023-01-20T01:06:09.825Z,-2.2
2023-01-20T01:07:00.380Z,-2.2
2023-01-20T01:08:00.393Z,-2.2
2023-01-20T01:09:00.388Z,-2.3
2023-01-20T01:10:00.523Z,-2.2
2023-01-20T01:11:00.519Z,-2.3
2023-01-20T01:12:00.382Z,-2.2
2023-01-20T01:13:01.743Z,-2.2
2023-01-20T01:14:00.387Z,-2.2
2023-01-20T01:15:00.893Z,-2.1
2023-01-20T01:16:00.715Z,-2.1
2023-01-20T01:17:00.365Z,-2.1
2023-01-20T01:18:00.998Z,-2.1
2023-01-20T01:19:00.411Z,-2.0
2023-01-20T01:20:00.377Z,-2.0
2023-01-20T01:21:06.214Z,-2.0
2023-01-20T01:22:00.399Z,-2.0
2023-01-20T01:23:00.362Z,-2.0
2023-01-20T01:24:00.425Z,-2.0
2023-01-20T01:25:00.458Z,-1.9
2023-01-20T01:26:00.599Z,-1.9
2023-01-20T01:27:00.427Z,-1.9
2023-01-20T01:28:00.372Z,-1.9
2023-01-20T01:29:00.370Z,-1.9
2023-01-20T01:30:00.396Z,-1.9
2023-01-20T01:31:01.755Z,-1.9
2023-01-20T01:32:00.376Z,-2.0
2023-01-20T01:33:00.507Z,-2.0
2023-01-20T01:34:00.444Z,-2.0
2023-01-20T01:35:00.458Z,-2.0
2023-01-20T01:36:01.971Z,-2.1
2023-01-20T01:37:00.415Z,-2.1
2023-01-20T01:38:00.496Z,-2.1
2023-01-20T01:39:00.402Z,-2.1
2023-01-20T01:40:00.441Z,-2.1
2023-01-20T01:41:00.560Z,-2.1
2023-01-20T01:42:00.396Z,-2.0
2023-01-20T01:43:00.417Z,-2.0
2023-01-20T01:44:08.155Z,-2.0
2023-01-20T01:45:10.450Z,-2.0
2023-01-20T01:46:00.969Z,-1.9
2023-01-20T01:47:00.482Z,-1.9
2023-01-20T01:48:04.387Z,-2.0
2023-01-20T01:49:06.147Z,-2.0
2023-01-20T01:50:00.606Z,-2.0
2023-01-20T01:51:06.396Z,-2.0
2023-01-20T01:52:03.084Z,-2.0
2023-01-20T01:53:00.434Z,-2.0
2023-01-20T01:54:06.900Z,-2.0
2023-01-20T01:55:01.394Z,-2.0
2023-01-20T01:56:02.203Z,-2.0
2023-01-20T01:57:00.781Z,-2.1
2023-01-20T01:58:01.630Z,-2.0
2023-01-20T01:59:02.262Z,-2.0
2023-01-20T02:00:01.193Z,-2.0
2023-01-20T02:01:00.714Z,-2.0
2023-01-20T02:02:00.595Z,-2.0
2023-01-20T02:03:00.426Z,-2.0
2023-01-20T02:04:07.366Z,-2.0
2023-01-20T02:05:01.306Z,-2.0
2023-01-20T02:06:01.257Z,-2.0
2023-01-20T02:07:04.996Z,-1.9
2023-01-20T02:08:00.674Z,-1.9
2023-01-20T02:09:02.228Z,-1.9
2023-01-20T02:10:00.752Z,-2.0
2023-01-20T02:11:00.385Z,-2.0
2023-01-20T02:12:04.776Z,-2.0
2023-01-20T02:13:01.702Z,-2.0
2023-01-20T02:14:00.506Z,-2.0
2023-01-20T02:15:02.211Z,-2.0
2023-01-20T02:16:12.675Z,-2.0
2023-01-20T02:17:11.515Z,-2.0
2023-01-20T02:18:10.306Z,-1.9
2023-01-20T02:19:20.292Z,-1.9
2023-01-20T02:20:08.426Z,-1.9
2023-01-20T02:21:17.651Z,-1.9
2023-01-20T02:22:20.068Z,-2.0
2023-01-20T02:23:18.700Z,-2.0
2023-01-20T02:24:20.274Z,-1.9
2023-01-20T02:25:00.341Z,-1.9
2023-01-20T02:26:20.298Z,-2.0
2023-01-20T02:27:06.506Z,-2.0
2023-01-20T02:28:13.665Z,-2.0
2023-01-20T02:29:20.284Z,-2.0
2023-01-20T02:30:20.314Z,-2.0
2023-01-20T02:31:20.322Z,-2.0
2023-01-20T02:32:07.971Z,-2.0
2023-01-20T02:33:10.318Z,-2.0
2023-01-20T02:34:12.913Z,-2.1
2023-01-20T02:35:07.356Z,-2.1
2023-01-20T02:36:12.174Z,-2.1
2023-01-20T02:37:12.594Z,-2.2
2023-01-20T02:38:14.108Z,-2.2
2023-01-20T02:39:12.450Z,-2.2
2023-01-20T02:40:13.640Z,-2.2
2023-01-20T02:41:11.492Z,-2.2
2023-01-20T02:42:07.534Z,-2.2
2023-01-20T02:43:10.589Z,-2.2
2023-01-20T02:44:20.274Z,-2.2
2023-01-20T02:45:09.850Z,-2.2
2023-01-20T02:46:12.550Z,-2.2
2023-01-20T02:47:08.362Z,-2.2
2023-01-20T02:48:13.605Z,-2.2
2023-01-20T02:49:15.055Z,-2.1
2023-01-20T02:50:12.958Z,-2.1
2023-01-20T02:51:07.883Z,-2.1
2023-01-20T02:52:14.721Z,-2.1
2023-01-20T02:53:02.663Z,-2.1
2023-01-20T02:54:06.222Z,-2.0
2023-01-20T02:55:06.133Z,-2.1
2023-01-20T02:56:00.793Z,-2.1
2023-01-20T02:57:04.266Z,-2.1
2023-01-20T02:58:05.735Z,-2.1
2023-01-20T02:59:07.319Z,-2.2
2023-01-20T03:00:11.421Z,-2.1
2023-01-20T03:01:07.143Z,-2.1
2023-01-20T03:02:05.404Z,-2.1
2023-01-20T03:03:05.600Z,-2.0
2023-01-20T03:04:03.835Z,-2.0
2023-01-20T03:05:04.811Z,-2.0
2023-01-20T03:06:05.802Z,-2.0
2023-01-20T03:07:02.497Z,-2.0
2023-01-20T03:08:05.164Z,-2.1
2023-01-20T03:09:04.775Z,-2.1
2023-01-20T03:10:03.479Z,-2.1
2023-01-20T03:11:04.991Z,-2.1
2023-01-20T03:12:06.912Z,-2.1
2023-01-20T03:13:10.111Z,-2.1
2023-01-20T03:14:06.203Z,-2.1
2023-01-20T03:15:00.995Z,-2.1
2023-01-20T03:16:05.212Z,-2.0
2023-01-20T03:17:01.506Z,-2.0
2023-01-20T03:18:00.403Z,-2.0
2023-01-20T03:19:00.514Z,-2.0
2023-01-20T03:20:00.461Z,-2.0
2023-01-20T03:21:02.767Z,-2.0
2023-01-20T03:22:00.483Z,-2.0
2023-01-20T03:23:00.497Z,-2.0
2023-01-20T03:24:02.518Z,-2.0
2023-01-20T03:25:02.064Z,-2.0
2023-01-20T03:26:06.219Z,-2.0
2023-01-20T03:27:00.585Z,-2.0
2023-01-20T03:28:00.388Z,-2.1
2023-01-20T03:29:05.137Z,-2.1
2023-01-20T03:30:00.571Z,-2.1
2023-01-20T03:31:07.281Z,-2.2
2023-01-20T03:32:02.454Z,-2.1
2023-01-20T03:33:01.704Z,-2.1
2023-01-20T03:34:05.479Z,-2.1
2023-01-20T03:35:00.501Z,-2.1
2023-01-20T03:36:00.492Z,-2.1
2023-01-20T03:37:02.752Z,-2.1
2023-01-20T03:38:00.579Z,-2.2
2023-01-20T03:39:00.415Z,-2.2
2023-01-20T03:40:00.552Z,-2.2
2023-01-20T03:41:20.298Z,-2.2
2023-01-20T03:42:11.372Z,-2.2
2023-01-20T03:43:09.300Z,-2.2
2023-01-20T03:44:11.109Z,-2.2
2023-01-20T03:45:09.555Z,-2.2
2023-01-20T03:46:16.741Z,-2.2
2023-01-20T03:47:06.839Z,-2.2
2023-01-20T03:48:10.329Z,-2.3
2023-01-20T03:49:12.248Z,-2.3
2023-01-20T03:50:10.320Z,-2.3
2023-01-20T03:51:11.668Z,-2.3
2023-01-20T03:52:08.061Z,-2.4
2023-01-20T03:53:13.355Z,-2.4
2023-01-20T03:54:05.492Z,-2.4
2023-01-20T03:55:14.811Z,-2.4
2023-01-20T03:56:06.732Z,-2.5
2023-01-20T03:57:08.289Z,-2.5
2023-01-20T03:58:05.538Z,-2.5
2023-01-20T03:59:02.494Z,-2.5
2023-01-20T04:00:03.918Z,-2.5
2023-01-20T04:01:17.941Z,-2.4
2023-01-20T04:02:04.076Z,-2.4
2023-01-20T04:03:07.749Z,-2.2
2023-01-20T04:04:02.860Z,-2.2
2023-01-20T04:05:02.248Z,-2.1
2023-01-20T04:06:03.712Z,-2.1
2023-01-20T04:07:03.789Z,-2.1
2023-01-20T04:08:04.886Z,-2.1
2023-01-20T04:09:05.673Z,-2.2
2023-01-20T04:10:08.166Z,-2.2
2023-01-20T04:11:05.068Z,-2.2
2023-01-20T04:12:00.554Z,-2.2
2023-01-20T04:13:00.391Z,-2.2
2023-01-20T04:14:00.993Z,-2.2
2023-01-20T04:15:00.443Z,-2.3
2023-01-20T04:16:02.056Z,-2.3
2023-01-20T04:17:02.827Z,-2.3
2023-01-20T04:18:11.442Z,-2.3
2023-01-20T04:19:00.538Z,-2.4
2023-01-20T04:20:06.107Z,-2.4
2023-01-20T04:21:02.432Z,-2.4
2023-01-20T04:22:06.447Z,-2.4
2023-01-20T04:23:01.443Z,-2.4
2023-01-20T04:24:20.289Z,-2.4
2023-01-20T04:25:09.583Z,-2.4
2023-01-20T04:26:00.583Z,-2.4
2023-01-20T04:27:00.408Z,-2.5
2023-01-20T04:28:00.367Z,-2.5
2023-01-20T04:29:00.391Z,-2.5
2023-01-20T04:30:00.454Z,-2.5
2023-01-20T04:31:00.459Z,-2.6
2023-01-20T04:32:02.219Z,-2.6
2023-01-20T04:33:00.411Z,-2.6
2023-01-20T04:34:01.206Z,-2.7
2023-01-20T04:35:00.404Z,-2.7
2023-01-20T04:36:00.376Z,-2.7
2023-01-20T04:37:00.421Z,-2.8
2023-01-20T04:38:00.396Z,-2.7
2023-01-20T04:39:00.373Z,-2.7
2023-01-20T04:40:00.370Z,-2.7
2023-01-20T04:41:02.778Z,-2.7
2023-01-20T04:42:01.343Z,-2.8
2023-01-20T04:43:00.375Z,-2.8
2023-01-20T04:44:00.405Z,-2.8
2023-01-20T04:45:00.374Z,-2.8
2023-01-20T04:46:00.415Z,-2.8
2023-01-20T04:47:00.374Z,-2.8
2023-01-20T04:48:00.594Z,-2.8
2023-01-20T04:49:00.375Z,-2.8
2023-01-20T04:50:00.438Z,-2.7
2023-01-20T04:51:03.331Z,-2.7
2023-01-20T04:52:00.378Z,-2.7
2023-01-20T04:53:00.940Z,-2.7
2023-01-20T04:54:00.480Z,-2.7
2023-01-20T04:55:00.393Z,-2.7
2023-01-20T04:56:00.424Z,-2.7
2023-01-20T04:57:00.382Z,-2.7
2023-01-20T04:58:00.363Z,-2.7
2023-01-20T04:59:00.477Z,-2.7
2023-01-20T05:00:00.675Z,-2.8
2023-01-20T05:01:01.340Z,-2.8
2023-01-20T05:02:00.542Z,-2.8
2023-01-20T05:03:00.547Z,-2.8
2023-01-20T05:04:00.398Z,-2.8
2023-01-20T05:05:00.390Z,-2.8
2023-01-20T05:06:00.411Z,-2.8
2023-01-20T05:07:00.372Z,-2.8
2023-01-20T05:08:00.494Z,-2.8
2023-01-20T05:09:00.383Z,-2.8
2023-01-20T05:10:00.420Z,-2.8
2023-01-20T05:11:00.415Z,-2.7
2023-01-20T05:12:00.395Z,-2.7
2023-01-20T05:13:00.582Z,-2.7
2023-01-20T05:14:00.361Z,-2.7
2023-01-20T05:15:00.372Z,-2.7
2023-01-20T05:16:02.842Z,-2.7
2023-01-20T05:17:00.486Z,-2.7
2023-01-20T05:18:00.413Z,-2.7
2023-01-20T05:19:00.396Z,-2.7
2023-01-20T05:20:00.404Z,-2.7
2023-01-20T05:21:01.705Z,-2.7
2023-01-20T05:22:00.397Z,-2.7
2023-01-20T05:23:01.462Z,-2.7
2023-01-20T05:24:00.397Z,-2.6
2023-01-20T05:25:00.587Z,-2.6
2023-01-20T05:26:00.418Z,-2.5
2023-01-20T05:27:00.504Z,-2.5
2023-01-20T05:28:00.412Z,-2.5
2023-01-20T05:29:00.457Z,-2.4
2023-01-20T05:30:00.612Z,-2.4
2023-01-20T05:31:00.463Z,-2.4
2023-01-20T05:32:00.382Z,-2.4
2023-01-20T05:33:00.415Z,-2.4
2023-01-20T05:34:00.382Z,-2.4
2023-01-20T05:35:00.398Z,-2.4
2023-01-20T05:36:03.760Z,-2.4
2023-01-20T05:37:00.372Z,-2.3
2023-01-20T05:38:00.356Z,-2.3
2023-01-20T05:39:00.683Z,-2.2
2023-01-20T05:40:00.382Z,-2.2
2023-01-20T05:41:02.108Z,-2.1
2023-01-20T05:42:00.838Z,-2.0
2023-01-20T05:43:01.399Z,-2.0
2023-01-20T05:44:00.384Z,-2.0
2023-01-20T05:45:00.389Z,-2.0
2023-01-20T05:46:00.523Z,-2.1
2023-01-20T05:47:00.788Z,-2.1
2023-01-20T05:48:00.401Z,-2.1
2023-01-20T05:49:00.364Z,-2.1
2023-01-20T05:50:00.402Z,-2.1
2023-01-20T05:51:00.390Z,-2.1
2023-01-20T05:52:00.452Z,-2.0
2023-01-20T05:53:00.406Z,-2.0
2023-01-20T05:54:00.393Z,-1.9
2023-01-20T05:55:00.356Z,-1.9
2023-01-20T05:56:02.085Z,-1.8
2023-01-20T05:57:00.404Z,-1.8
2023-01-20T05:58:01.588Z,-1.7
2023-01-20T05:59:00.381Z,-1.7
2023-01-20T06:00:00.397Z,-1.7
2023-01-20T06:01:10.166Z,-1.7
2023-01-20T06:02:00.373Z,-1.7
2023-01-20T06:03:00.674Z,-1.7
2023-01-20T06:04:00.443Z,-1.7
2023-01-20T06:05:00.400Z,-1.7
2023-01-20T06:06:02.138Z,-1.8
2023-01-20T06:07:00.388Z,-1.8
2023-01-20T06:08:00.415Z,-1.8
2023-01-20T06:09:00.392Z,-1.8
2023-01-20T06:10:00.381Z,-1.8
2023-01-20T06:11:00.676Z,-1.8
2023-01-20T06:12:00.364Z,-1.7
2023-01-20T06:13:00.382Z,-1.7
2023-01-20T06:14:00.392Z,-1.7
2023-01-20T06:15:00.364Z,-1.7
2023-01-20T06:16:00.917Z,-1.7
2023-01-20T06:17:00.419Z,-1.7
2023-01-20T06:18:00.378Z,-1.8
2023-01-20T06:19:00.419Z,-1.8
2023-01-20T06:20:00.921Z,-1.8
2023-01-20T06:21:00.384Z,-1.8
2023-01-20T06:22:00.430Z,-1.8
2023-01-20T06:23:00.380Z,-1.8
2023-01-20T06:24:00.393Z,-1.8
2023-01-20T06:25:00.402Z,-1.7
2023-01-20T06:26:02.869Z,-1.6
2023-01-20T06:27:00.365Z,-1.6
2023-01-20T06:28:00.623Z,-1.6
2023-01-20T06:29:00.398Z,-1.6
2023-01-20T06:30:00.497Z,-1.6
2023-01-20T06:31:09.688Z,-1.6
2023-01-20T06:32:00.420Z,-1.5
2023-01-20T06:33:00.419Z,-1.5
2023-01-20T06:34:00.407Z,-1.5
2023-01-20T06:35:00.358Z,-1.5
2023-01-20T06:36:01.315Z,-1.6
2023-01-20T06:37:00.383Z,-1.6
2023-01-20T06:38:00.363Z,-1.6
2023-01-20T06:39:00.370Z,-1.6
2023-01-20T06:40:00.408Z,-1.6
2023-01-20T06:41:03.729Z,-1.6
2023-01-20T06:42:00.408Z,-1.7
2023-01-20T06:43:00.376Z,-1.7
2023-01-20T06:44:00.436Z,-1.7
2023-01-20T06:45:00.375Z,-1.8
2023-01-20T06:46:02.801Z,-1.9
2023-01-20T06:47:00.397Z,-1.9
2023-01-20T06:48:00.421Z,-1.9
2023-01-20T06:49:00.761Z,-1.9
2023-01-20T06:50:00.536Z,-1.9
2023-01-20T06:51:11.171Z,-2.0
2023-01-20T06:52:00.390Z,-2.0
2023-01-20T06:53:00.379Z,-2.0
2023-01-20T06:54:00.382Z,-2.0
2023-01-20T06:55:00.388Z,-2.0
2023-01-20T06:56:01.126Z,-2.1
2023-01-20T06:57:00.431Z,-2.2
2023-01-20T06:58:00.376Z,-2.2
2023-01-20T06:59:00.495Z,-2.2
2023-01-20T07:00:00.449Z,-2.3
2023-01-20T07:01:07.518Z,-2.3
2023-01-20T07:02:00.553Z,-2.3
2023-01-20T07:03:00.418Z,-2.4
2023-01-20T07:04:00.384Z,-2.4
2023-01-20T07:05:00.426Z,-2.4
2023-01-20T07:06:12.165Z,-2.4
2023-01-20T07:07:00.379Z,-2.4
2023-01-20T07:08:00.384Z,-2.4
2023-01-20T07:09:01.034Z,-2.4
2023-01-20T07:10:00.991Z,-2.4
2023-01-20T07:11:00.382Z,-2.5
2023-01-20T07:12:00.541Z,-2.5
2023-01-20T07:13:00.576Z,-2.5
2023-01-20T07:14:00.834Z,-2.5
2023-01-20T07:15:00.428Z,-2.5
2023-01-20T07:16:00.418Z,-2.5
2023-01-20T07:17:00.411Z,-2.5
2023-01-20T07:18:00.381Z,-2.5
2023-01-20T07:19:00.542Z,-2.5
2023-01-20T07:20:00.400Z,-2.4
2023-01-20T07:21:00.446Z,-2.4
2023-01-20T07:22:00.380Z,-2.4
2023-01-20T07:23:01.072Z,-2.4
2023-01-20T07:24:00.793Z,-2.4
2023-01-20T07:25:00.362Z,-2.3
2023-01-20T07:26:01.995Z,-2.2
2023-01-20T07:27:00.451Z,-2.2
2023-01-20T07:28:00.366Z,-2.1
2023-01-20T07:29:00.382Z,-2.0
2023-01-20T07:30:00.409Z,-1.9
2023-01-20T07:31:12.915Z,-1.8
2023-01-20T07:32:00.578Z,-1.8
2023-01-20T07:33:00.360Z,-1.7
2023-01-20T07:34:00.471Z,-1.5
2023-01-20T07:35:00.412Z,-1.4
2023-01-20T07:36:00.540Z,-1.2
2023-01-20T07:37:00.393Z,-1.1
2023-01-20T07:38:00.405Z,-0.9
2023-01-20T07:39:00.389Z,-0.8
2023-01-20T07:40:00.383Z,-0.7
2023-01-20T07:41:04.668Z,-0.6
2023-01-20T07:42:00.423Z,-0.6
2023-01-20T07:43:03.512Z,-0.5
2023-01-20T07:44:00.382Z,-0.4
2023-01-20T07:45:00.379Z,-0.3
2023-01-20T07:46:02.362Z,-0.2
2023-01-20T07:47:00.391Z,-0.1
2023-01-20T07:48:00.611Z,-0.1
2023-01-20T07:49:00.380Z,0.0
2023-01-20T07:50:00.495Z,0.2
2023-01-20T07:51:02.853Z,0.3
2023-01-20T07:52:00.406Z,0.4
2023-01-20T07:53:00.401Z,0.5
2023-01-20T07:54:00.399Z,0.6
2023-01-20T07:55:00.395Z,0.7
2023-01-20T07:56:02.535Z,0.8
2023-01-20T07:57:00.397Z,0.9
2023-01-20T07:58:00.604Z,0.9
2023-01-20T07:59:00.409Z,1.0
2023-01-20T08:00:00.442Z,1.2
2023-01-20T08:01:11.466Z,1.3
2023-01-20T08:02:00.482Z,1.4
2023-01-20T08:03:00.382Z,1.6
2023-01-20T08:04:00.847Z,1.7
2023-01-20T08:05:00.452Z,1.8
2023-01-20T08:06:02.133Z,2.0
2023-01-20T08:07:00.401Z,2.1
2023-01-20T08:08:00.366Z,2.2
2023-01-20T08:09:01.736Z,2.3
2023-01-20T08:10:00.395Z,2.5
2023-01-20T08:11:00.951Z,2.6
2023-01-20T08:12:00.542Z,2.8
2023-01-20T08:13:00.452Z,2.9
2023-01-20T08:14:00.362Z,2.9
2023-01-20T08:15:00.415Z,3.0
2023-01-20T08:16:02.301Z,2.9
2023-01-20T08:17:00.464Z,2.9
2023-01-20T08:18:00.408Z,2.9
2023-01-20T08:19:00.395Z,3.0
2023-01-20T08:20:00.387Z,3.1
2023-01-20T08:21:02.238Z,3.3
2023-01-20T08:22:00.442Z,3.5
2023-01-20T08:23:00.359Z,3.6
2023-01-20T08:24:02.447Z,3.4
2023-01-20T08:25:00.386Z,3.3
2023-01-20T08:26:02.981Z,3.4
2023-01-20T08:27:00.547Z,3.4
2023-01-20T08:28:00.388Z,3.5
2023-01-20T08:29:03.825Z,3.5
2023-01-20T08:30:00.392Z,3.6
2023-01-20T08:31:05.879Z,3.7
2023-01-20T08:32:00.425Z,3.5
2023-01-20T08:33:00.445Z,3.5
2023-01-20T08:34:00.433Z,3.5
2023-01-20T08:35:00.412Z,3.5
2023-01-20T08:36:06.080Z,3.4
2023-01-20T08:37:00.409Z,3.5
2023-01-20T08:38:00.420Z,3.6
2023-01-20T08:39:05.816Z,3.7
2023-01-20T08:40:00.366Z,3.8
2023-01-20T08:41:01.381Z,3.8
2023-01-20T08:42:00.434Z,3.6
2023-01-20T08:43:01.013Z,3.6
2023-01-20T08:44:01.729Z,3.5
2023-01-20T08:45:00.456Z,3.6
2023-01-20T08:46:02.591Z,3.7
2023-01-20T08:47:00.361Z,3.8
2023-01-20T08:48:00.464Z,4.0
2023-01-20T08:49:00.424Z,4.1
2023-01-20T08:50:00.332Z,4.0
2023-01-20T08:51:05.270Z,3.9
2023-01-20T08:52:00.342Z,3.9
2023-01-20T08:53:00.387Z,4.0
2023-01-20T08:54:01.185Z,4.0
2023-01-20T08:55:00.297Z,4.1
2023-01-20T08:56:01.537Z,4.2
2023-01-20T08:57:00.379Z,4.2
2023-01-20T08:58:00.360Z,4.3
2023-01-20T08:59:00.609Z,4.4
2023-01-20T09:00:00.781Z,4.4
2023-01-20T09:01:00.444Z,4.4
2023-01-20T09:02:00.341Z,4.5
2023-01-20T09:03:00.356Z,4.4
2023-01-20T09:04:06.276Z,4.2
2023-01-20T09:05:00.304Z,4.1
2023-01-20T09:06:01.266Z,4.0
2023-01-20T09:07:00.310Z,3.9
2023-01-20T09:08:00.325Z,3.6
2023-01-20T09:09:00.324Z,3.4
2023-01-20T09:10:00.490Z,3.2
2023-01-20T09:11:10.420Z,2.9
2023-01-20T09:12:00.301Z,2.8
2023-01-20T09:13:00.376Z,2.8
2023-01-20T09:14:00.419Z,2.7
2023-01-20T09:15:00.320Z,2.6
2023-01-20T09:16:00.549Z,2.5
2023-01-20T09:17:00.411Z,2.4
2023-01-20T09:18:00.391Z,2.3
2023-01-20T09:19:00.459Z,2.4
2023-01-20T09:20:00.441Z,2.3
2023-01-20T09:21:01.202Z,2.2
2023-01-20T09:22:00.399Z,2.2
2023-01-20T09:23:01.134Z,2.2
2023-01-20T09:24:00.437Z,2.1
2023-01-20T09:25:00.411Z,1.9
2023-01-20T09:26:02.158Z,1.9
2023-01-20T09:27:00.436Z,1.9
2023-01-20T09:28:00.457Z,1.8
2023-01-20T09:29:00.349Z,1.8
2023-01-20T09:30:00.562Z,1.8
2023-01-20T09:31:02.598Z,1.8
2023-01-20T09:32:00.466Z,1.8
2023-01-20T09:33:00.430Z,1.8
2023-01-20T09:34:01.029Z,1.8
2023-01-20T09:35:00.426Z,1.8
2023-01-20T09:36:01.958Z,1.7
2023-01-20T09:37:01.261Z,1.6
2023-01-20T09:38:00.397Z,1.5
2023-01-20T09:39:00.520Z,1.5
2023-01-20T09:40:00.441Z,1.5
2023-01-20T09:41:14.120Z,1.5
2023-01-20T09:42:04.890Z,1.5
2023-01-20T09:43:17.593Z,1.5
2023-01-20T09:44:13.624Z,1.5
2023-01-20T09:45:12.319Z,1.6
2023-01-20T09:46:08.641Z,1.5
2023-01-20T09:47:20.340Z,1.5
2023-01-20T09:48:20.293Z,1.5
2023-01-20T09:49:12.552Z,1.4
2023-01-20T09:50:04.727Z,1.4
2023-01-20T09:51:05.913Z,1.4
2023-01-20T09:52:15.132Z,1.4
2023-01-20T09:53:20.333Z,1.5
2023-01-20T09:54:07.546Z,1.5
2023-01-20T09:55:08.923Z,1.5
2023-01-20T09:56:08.462Z,1.6
2023-01-20T09:57:01.476Z,1.6
2023-01-20T09:58:10.938Z,1.7
2023-01-20T09:59:07.048Z,1.7
2023-01-20T10:00:10.060Z,1.7
2023-01-20T10:01:14.658Z,1.7
2023-01-20T10:02:05.810Z,1.7
2023-01-20T10:03:20.277Z,1.7
2023-01-20T10:04:07.757Z,1.7
2023-01-20T10:05:11.761Z,1.7
2023-01-20T10:06:02.682Z,1.7
2023-01-20T10:07:02.424Z,1.7
2023-01-20T10:08:06.528Z,1.7
2023-01-20T10:09:06.678Z,1.7
2023-01-20T10:10:18.228Z,1.7
2023-01-20T10:11:07.369Z,1.7
2023-01-20T10:12:13.607Z,1.7
2023-01-20T10:13:16.910Z,1.7
2023-01-20T10:14:06.913Z,1.6
2023-01-20T10:15:19.213Z,1.5
2023-01-20T10:16:06.999Z,1.5
2023-01-20T10:17:12.176Z,1.6
2023-01-20T10:18:14.412Z,1.6
2023-01-20T10:19:04.907Z,1.6
2023-01-20T10:20:03.714Z,1.6
2023-01-20T10:21:12.458Z,1.6
2023-01-20T10:22:11.373Z,1.6
2023-01-20T10:23:08.528Z,1.7
2023-01-20T10:24:08.635Z,1.7
2023-01-20T10:25:07.700Z,1.7
2023-01-20T10:26:07.525Z,1.7
2023-01-20T10:27:02.270Z,1.8
2023-01-20T10:28:11.164Z,1.8
2023-01-20T10:29:02.470Z,1.8
2023-01-20T10:30:08.364Z,1.8
2023-01-20T10:31:03.300Z,1.8
2023-01-20T10:32:02.998Z,1.9
2023-01-20T10:33:08.779Z,1.8
2023-01-20T10:34:08.673Z,1.8
2023-01-20T10:35:09.730Z,1.8
2023-01-20T10:36:00.407Z,1.8
2023-01-20T10:37:05.699Z,1.8
2023-01-20T10:38:02.619Z,1.8
2023-01-20T10:39:05.124Z,1.8
2023-01-20T10:40:13.633Z,1.8
2023-01-20T10:41:20.289Z,1.8
2023-01-20T10:42:04.667Z,1.9
2023-01-20T10:43:09.348Z,1.9
2023-01-20T10:44:10.837Z,1.9
2023-01-20T10:45:00.501Z,1.9
2023-01-20T10:46:12.574Z,1.8
2023-01-20T10:47:20.286Z,1.9
2023-01-20T10:48:19.009Z,1.9
2023-01-20T10:49:11.399Z,1.8
2023-01-20T10:50:01.350Z,1.8
2023-01-20T10:51:04.943Z,1.7
2023-01-20T10:52:20.329Z,1.6
2023-01-20T10:53:12.376Z,1.6
2023-01-20T10:54:20.350Z,1.6
2023-01-20T10:55:17.523Z,1.6
2023-01-20T10:56:20.304Z,1.7
2023-01-20T10:57:02.886Z,1.7
2023-01-20T10:58:17.892Z,1.7
2023-01-20T10:59:07.429Z,1.7
2023-01-20T11:00:05.308Z,1.7
2023-01-20T11:01:04.186Z,1.7
2023-01-20T11:02:12.706Z,1.6
2023-01-20T11:03:02.357Z,1.6
2023-01-20T11:04:00.562Z,1.6
2023-01-20T11:05:11.913Z,1.6
2023-01-20T11:06:01.995Z,1.6
2023-01-20T11:07:00.557Z,1.6
2023-01-20T11:08:14.921Z,1.6
2023-01-20T11:09:20.311Z,1.7
2023-01-20T11:10:15.209Z,1.7
2023-01-20T11:11:10.095Z,1.7
2023-01-20T11:12:09.158Z,1.7
2023-01-20T11:13:01.406Z,1.8
2023-01-20T11:14:00.529Z,1.8
2023-01-20T11:15:00.746Z,1.8
2023-01-20T11:16:06.304Z,1.8
2023-01-20T11:17:05.183Z,1.9
2023-01-20T11:18:13.606Z,1.9
2023-01-20T11:19:03.323Z,1.9
2023-01-20T11:20:05.423Z,1.9
2023-01-20T11:21:04.546Z,1.9
2023-01-20T11:22:10.788Z,1.9
2023-01-20T11:23:00.590Z,1.9
2023-01-20T11:24:00.448Z,1.9
2023-01-20T11:25:01.554Z,1.9
2023-01-20T11:26:02.157Z,1.9
2023-01-20T11:27:03.983Z,1.9
2023-01-20T11:28:00.590Z,1.9
2023-01-20T11:29:07.758Z,1.9
2023-01-20T11:30:04.536Z,1.9
2023-01-20T11:31:02.148Z,1.9
2023-01-20T11:32:00.445Z,1.9
2023-01-20T11:33:20.379Z,1.9
2023-01-20T11:34:11.261Z,1.9
2023-01-20T11:35:11.285Z,1.9
2023-01-20T11:36:04.041Z,2.0
2023-01-20T11:37:03.646Z,2.0
2023-01-20T11:38:20.280Z,2.0
2023-01-20T11:39:00.404Z,2.0
2023-01-20T11:40:12.768Z,2.0
2023-01-20T11:41:00.540Z,2.0
2023-01-20T11:42:10.306Z,2.0
2023-01-20T11:43:00.395Z,2.0
2023-01-20T11:44:00.430Z,2.0
2023-01-20T11:45:20.359Z,2.0
2023-01-20T11:46:11.573Z,2.0
2023-01-20T11:47:15.688Z,2.0
2023-01-20T11:48:02.961Z,2.1
2023-01-20T11:49:15.331Z,2.0
2023-01-20T11:50:03.639Z,2.1
2023-01-20T11:51:00.775Z,2.0
2023-01-20T11:52:00.440Z,2.0
2023-01-20T11:53:15.376Z,2.0
2023-01-20T11:54:06.738Z,2.0
2023-01-20T11:55:11.377Z,2.0
2023-01-20T11:56:04.644Z,2.0
2023-01-20T11:57:05.543Z,2.0
2023-01-20T11:58:02.664Z,2.0
2023-01-20T11:59:03.111Z,2.0
2023-01-20T12:00:00.446Z,2.0
2023-01-20T12:01:04.781Z,2.0
2023-01-20T12:02:10.377Z,1.9
2023-01-20T12:03:03.100Z,1.9
2023-01-20T12:04:20.341Z,1.9
2023-01-20T12:05:13.154Z,1.9
2023-01-20T12:06:07.816Z,1.8
2023-01-20T12:07:01.377Z,1.8
2023-01-20T12:08:03.076Z,1.7
2023-01-20T12:09:05.508Z,1.6
2023-01-20T12:10:10.735Z,1.6
2023-01-20T12:11:05.929Z,1.7
2023-01-20T12:12:03.767Z,1.8
2023-01-20T12:13:11.785Z,1.9
2023-01-20T12:14:09.533Z,1.9
2023-01-20T12:15:12.444Z,1.9
2023-01-20T12:16:01.757Z,1.9
2023-01-20T12:17:13.639Z,1.9
2023-01-20T12:18:14.247Z,1.9
2023-01-20T12:19:08.210Z,1.9
2023-01-20T12:20:04.210Z,1.9
2023-01-20T12:21:04.948Z,1.9
2023-01-20T12:22:08.683Z,1.9
2023-01-20T12:23:17.676Z,1.8
2023-01-20T12:24:16.950Z,1.8
2023-01-20T12:25:15.270Z,1.8
2023-01-20T12:26:03.567Z,1.8
2023-01-20T12:27:00.772Z,1.8
2023-01-20T12:28:09.019Z,1.8
2023-01-20T12:29:06.871Z,1.7
2023-01-20T12:30:13.027Z,1.7
2023-01-20T12:31:02.313Z,1.7
2023-01-20T12:32:00.677Z,1.7
2023-01-20T12:33:00.639Z,1.7
2023-01-20T12:34:11.825Z,1.7
2023-01-20T12:35:00.550Z,1.7
2023-01-20T12:36:14.872Z,1.7
2023-01-20T12:37:12.689Z,1.7
2023-01-20T12:38:06.295Z,1.8
2023-01-20T12:39:04.620Z,1.7
2023-01-20T12:40:01.409Z,1.6
2023-01-20T12:41:06.706Z,1.6
2023-01-20T12:42:14.464Z,1.5
2023-01-20T12:43:13.601Z,1.5
2023-01-20T12:44:19.052Z,1.4
2023-01-20T12:45:13.624Z,1.4
2023-01-20T12:46:15.376Z,1.4
2023-01-20T12:47:20.301Z,1.3
2023-01-20T12:48:11.343Z,1.4
2023-01-20T12:49:13.445Z,1.4
2023-01-20T12:50:09.905Z,1.4
2023-01-20T12:51:15.489Z,1.4
2023-01-20T12:52:20.301Z,1.4
2023-01-20T12:53:20.288Z,1.4
2023-01-20T12:54:20.276Z,1.4
2023-01-20T12:55:17.681Z,1.4
2023-01-20T12:56:11.395Z,1.5
2023-01-20T12:57:20.301Z,1.5
2023-01-20T12:58:20.324Z,1.5
2023-01-20T12:59:10.885Z,1.5
2023-01-20T13:00:17.768Z,1.5
2023-01-20T13:01:13.667Z,1.5
2023-01-20T13:02:18.888Z,1.4
2023-01-20T13:03:13.622Z,1.3
2023-01-20T13:04:10.349Z,1.4
2023-01-20T13:05:19.599Z,1.4
2023-01-20T13:06:10.325Z,1.4
2023-01-20T13:07:08.833Z,1.4
2023-01-20T13:08:11.890Z,1.4
2023-01-20T13:09:20.329Z,1.4
2023-01-20T13:10:19.436Z,1.5
2023-01-20T13:11:15.598Z,1.4
2023-01-20T13:12:10.343Z,1.4
2023-01-20T13:13:18.785Z,1.5
2023-01-20T13:14:14.150Z,1.6
2023-01-20T13:15:13.501Z,1.5
2023-01-20T13:16:06.286Z,1.5
2023-01-20T13:17:11.565Z,1.5
2023-01-20T13:18:10.325Z,1.5
2023-01-20T13:19:12.381Z,1.5
2023-01-20T13:20:02.838Z,1.5
2023-01-20T13:21:00.410Z,1.5
2023-01-20T13:22:13.575Z,1.5
2023-01-20T13:23:03.898Z,1.5
2023-01-20T13:24:03.321Z,1.5
2023-01-20T13:25:00.625Z,1.5
2023-01-20T13:26:03.467Z,1.5
2023-01-20T13:27:01.236Z,1.6
2023-01-20T13:28:01.917Z,1.5
2023-01-20T13:29:00.408Z,1.5